VEAT/IXA METAR and TAF weather

Enter ICAO airport designator
Station Type Date Time Source
VEAT METAR 2022/11/26 09:30 UTC NOAA

VEAT 260930Z 25003KT 5000 HZ NSC 31/19 Q1008 NOSIG


Station Type Date Time Source
VEAT Decoded METAR 2022/11/26 09:30 UTC NOAA

Agartala, India (VEAT) 23-53N 091-15E 16M
Nov 26, 2022 - 04:30 AM EST / 2022.11.26 0930 UTC
Wind: from the WSW (250 degrees) at 3 MPH (3 KT):0
Visibility: 3 mile(s):0
Weather: haze
Temperature: 87 F (31 C)
Dew Point: 66 F (19 C)
Relative Humidity: 48%
Pressure (altimeter): 29.77 in. Hg (1008 hPa)
ob: VEAT 260930Z 25003KT 5000 HZ NSC 31/19 Q1008 NOSIG
cycle: 9

Station Type Date Time Source
VEAT TAF 2022/11/26 06:00 UTC NOAA

TAF VEAT 260500Z 2606/2712 00000KT 5000 HZ FEW100
BECMG 2607/2609 10002KT 6000
BECMG 2612/2615 00000KT 4000 BR NSC 2618/2622 4800 BR
BECMG 2703/2706 3500 BR HZ FEW020 SCT100
BECMG 2707/2709 24002KT 5000 HZ=

Example: see airport list